Time;durP1;ratioP1;P1;durP2;ratioP2;P2;SDS_P1;SDS_P2;PMS_P1;PMS_P2;Temp;Humidity;BMP_temperature;BMP_pressure;BME280_temperature;BME280_humidity;BME280_pressure;Samples;Min_cycle;Max_cycle;Signal;HPM_P1;HPM_P2
2023/06/09 00:00:38;;;;;;;15.47;8.47;;;16.50;99.90;;;;;;4367449;28;659286;-69
2023/06/09 00:03:25;;;;;;;12.63;8.67;;;16.50;99.90;;;;;;4359237;28;659346;-69
2023/06/09 00:06:16;;;;;;;17.33;8.90;;;16.50;99.90;;;;;;4387642;28;658721;-70
2023/06/09 00:09:06;;;;;;;12.53;9.13;;;16.50;99.90;;;;;;4363325;28;659612;-69
2023/06/09 00:11:53;;;;;;;13.77;8.80;;;16.50;99.90;;;;;;4383270;27;659274;-69
2023/06/09 00:14:41;;;;;;;15.03;8.80;;;16.50;99.90;;;;;;4369988;28;658303;-69
2023/06/09 00:17:28;;;;;;;13.93;9.07;;;16.50;99.90;;;;;;4391192;27;659625;-70
2023/06/09 00:20:16;;;;;;;12.17;9.07;;;16.50;99.90;;;;;;4357272;28;658585;-70
2023/06/09 00:23:04;;;;;;;12.53;8.60;;;16.50;99.90;;;;;;4388077;28;659535;-70
2023/06/09 00:25:51;;;;;;;11.77;8.77;;;16.60;99.90;;;;;;4292230;28;658587;-70
2023/06/09 00:28:39;;;;;;;12.63;8.73;;;16.60;99.90;;;;;;4319126;27;658674;-69
2023/06/09 00:31:26;;;;;;;14.47;9.13;;;16.60;99.90;;;;;;4364970;28;659522;-69
2023/06/09 00:34:13;;;;;;;13.80;9.03;;;16.60;99.90;;;;;;4423343;27;659661;-69
2023/06/09 00:37:00;;;;;;;16.10;9.63;;;16.60;99.90;;;;;;4359967;28;658933;-69
2023/06/09 00:39:49;;;;;;;12.80;8.83;;;16.60;99.90;;;;;;4388276;27;660803;-69
2023/06/09 00:42:36;;;;;;;13.27;9.00;;;16.60;99.90;;;;;;4412847;27;658790;-70
2023/06/09 00:45:23;;;;;;;12.67;8.70;;;16.60;99.90;;;;;;4385999;28;658510;-69
2023/06/09 00:48:11;;;;;;;14.07;8.53;;;16.60;99.90;;;;;;4377549;27;659073;-70
2023/06/09 00:50:59;;;;;;;12.80;9.20;;;16.60;99.90;;;;;;4378351;27;659201;-69
2023/06/09 00:53:46;;;;;;;12.43;9.30;;;16.60;99.90;;;;;;4382292;27;658402;-69
2023/06/09 00:56:35;;;;;;;11.57;8.73;;;16.60;99.90;;;;;;4397014;27;658380;-69
2023/06/09 00:59:22;;;;;;;12.47;9.27;;;16.60;99.90;;;;;;4377022;27;659703;-70
2023/06/09 01:02:12;;;;;;;12.37;9.60;;;16.60;99.90;;;;;;4384258;28;658541;-70
2023/06/09 01:05:00;;;;;;;14.83;9.63;;;16.60;99.90;;;;;;4362722;28;658636;-69
2023/06/09 01:07:54;;;;;;;13.40;9.57;;;16.60;99.90;;;;;;4362595;27;659767;-69
2023/06/09 01:10:44;;;;;;;11.40;8.80;;;16.60;99.90;;;;;;4339470;27;659646;-69
2023/06/09 01:13:38;;;;;;;11.77;8.63;;;16.60;99.90;;;;;;4374679;27;658480;-70
2023/06/09 01:16:27;;;;;;;15.50;10.00;;;16.60;99.90;;;;;;4353811;28;659293;-70
2023/06/09 01:19:20;;;;;;;14.10;9.40;;;16.60;99.90;;;;;;4394752;27;660312;-69
2023/06/09 01:22:12;;;;;;;12.80;9.13;;;16.60;99.90;;;;;;4367828;27;658762;-70
2023/06/09 01:25:06;;;;;;;12.37;9.13;;;16.60;99.90;;;;;;4358444;28;659144;-69
2023/06/09 01:27:57;;;;;;;15.23;9.63;;;16.60;99.90;;;;;;4346182;28;658688;-69
2023/06/09 01:30:46;;;;;;;14.23;8.97;;;16.60;99.90;;;;;;4367944;27;658784;-70
2023/06/09 01:33:34;;;;;;;16.30;10.03;;;16.60;99.90;;;;;;4356493;27;659180;-70
2023/06/09 01:36:22;;;;;;;13.33;9.70;;;16.60;99.90;;;;;;4381878;27;661045;-69
2023/06/09 01:39:09;;;;;;;13.23;9.53;;;16.50;99.90;;;;;;4403291;27;659079;-69
2023/06/09 01:41:56;;;;;;;14.15;9.80;;;16.50;99.90;;;;;;4376190;27;658764;-70
2023/06/09 01:44:45;;;;;;;13.33;10.13;;;16.50;99.90;;;;;;4379664;28;659917;-70
2023/06/09 01:47:32;;;;;;;18.00;9.83;;;16.50;99.90;;;;;;4352587;28;660284;-70
2023/06/09 01:50:22;;;;;;;14.20;9.53;;;16.50;99.90;;;;;;4378787;27;658529;-70
2023/06/09 01:53:13;;;;;;;13.80;10.07;;;16.50;99.90;;;;;;4350146;28;658732;-70
2023/06/09 01:56:06;;;;;;;13.13;9.87;;;16.50;99.90;;;;;;4359032;28;659690;-69
2023/06/09 01:58:54;;;;;;;15.17;10.23;;;16.50;99.90;;;;;;4374381;27;658761;-69
2023/06/09 02:01:43;;;;;;;17.33;10.27;;;16.50;99.90;;;;;;4355323;28;660517;-69
2023/06/09 02:04:30;;;;;;;15.47;10.67;;;16.50;99.90;;;;;;4398935;27;660646;-70
2023/06/09 02:07:19;;;;;;;14.53;9.80;;;16.40;99.90;;;;;;4374120;28;661070;-69
2023/06/09 02:10:07;;;;;;;14.80;10.17;;;16.40;99.90;;;;;;4367181;27;660074;-69
2023/06/09 02:12:54;;;;;;;14.70;9.90;;;16.40;99.90;;;;;;4380787;28;659560;-70
2023/06/09 02:15:43;;;;;;;13.63;10.03;;;16.30;99.90;;;;;;4362308;28;659761;-70
2023/06/09 02:18:32;;;;;;;15.07;10.53;;;16.20;99.90;;;;;;4403419;27;660319;-70
2023/06/09 02:21:19;;;;;;;17.40;11.07;;;16.20;99.90;;;;;;4377225;28;659717;-69
2023/06/09 02:24:06;;;;;;;16.03;11.17;;;16.20;99.90;;;;;;4310936;28;660937;-70
2023/06/09 02:26:53;;;;;;;13.47;9.77;;;16.30;99.90;;;;;;4333920;27;659117;-70
2023/06/09 02:29:41;;;;;;;13.57;10.00;;;16.20;99.90;;;;;;4246185;27;658567;-70
2023/06/09 02:32:28;;;;;;;18.03;12.00;;;16.20;99.90;;;;;;4241696;27;659783;-70
2023/06/09 02:35:17;;;;;;;17.73;11.80;;;16.20;99.90;;;;;;4354442;28;659979;-69
2023/06/09 02:38:05;;;;;;;19.30;10.53;;;16.20;99.90;;;;;;4377702;27;660019;-69
2023/06/09 02:40:52;;;;;;;15.43;10.53;;;16.10;99.90;;;;;;4351640;27;660293;-70
2023/06/09 02:43:39;;;;;;;18.30;11.10;;;16.10;99.90;;;;;;4401047;27;659795;-69
2023/06/09 02:46:29;;;;;;;15.90;11.50;;;16.10;99.90;;;;;;4370279;27;660719;-69
2023/06/09 02:49:16;;;;;;;17.33;11.33;;;16.10;99.90;;;;;;4357949;27;659751;-69
2023/06/09 02:52:05;;;;;;;16.43;11.17;;;16.10;99.90;;;;;;4375467;27;660181;-69
2023/06/09 02:54:52;;;;;;;19.20;12.37;;;16.20;99.90;;;;;;4383773;27;660338;-69
2023/06/09 02:57:39;;;;;;;19.27;12.43;;;16.20;99.90;;;;;;4394594;27;659911;-69
2023/06/09 03:00:27;;;;;;;18.17;12.40;;;16.30;99.90;;;;;;4357601;28;659930;-69
2023/06/09 03:03:14;;;;;;;20.60;13.60;;;16.30;99.90;;;;;;4414612;27;659137;-69
2023/06/09 03:06:01;;;;;;;19.03;12.53;;;16.30;99.90;;;;;;4396971;27;659741;-69
2023/06/09 03:08:50;;;;;;;20.87;13.73;;;16.30;99.90;;;;;;4396443;27;659717;-69
2023/06/09 03:11:37;;;;;;;20.00;12.60;;;16.40;99.90;;;;;;4363497;27;660483;-69
2023/06/09 03:14:25;;;;;;;18.27;12.63;;;16.40;99.90;;;;;;4398799;27;660214;-68
2023/06/09 03:17:12;;;;;;;19.53;13.20;;;16.40;99.90;;;;;;4394598;27;661044;-68
2023/06/09 03:19:59;;;;;;;20.50;12.47;;;16.40;99.90;;;;;;4400299;27;659898;-68
2023/06/09 03:22:47;;;;;;;19.95;12.90;;;16.50;99.90;;;;;;4368581;27;660250;-68
2023/06/09 03:25:35;;;;;;;20.40;13.07;;;16.50;99.90;;;;;;4378953;27;659530;-68
2023/06/09 03:28:22;;;;;;;18.67;12.90;;;16.50;99.90;;;;;;4358516;27;660115;-68
2023/06/09 03:31:13;;;;;;;22.60;13.23;;;16.60;99.90;;;;;;4379017;27;659939;-68
2023/06/09 03:34:00;;;;;;;23.37;13.77;;;16.60;99.90;;;;;;4365736;27;659894;-69
2023/06/09 03:36:47;;;;;;;20.27;13.40;;;16.60;99.90;;;;;;4381978;27;660098;-69
2023/06/09 03:39:34;;;;;;;20.73;13.10;;;16.60;99.90;;;;;;4381288;27;660058;-68
2023/06/09 03:42:23;;;;;;;21.97;14.40;;;16.70;99.90;;;;;;4365730;27;660461;-69
2023/06/09 03:45:11;;;;;;;22.63;13.63;;;16.70;99.90;;;;;;4371260;27;660307;-69
2023/06/09 03:47:58;;;;;;;21.67;14.43;;;16.70;99.90;;;;;;4395547;27;660491;-68
2023/06/09 03:50:45;;;;;;;25.77;15.03;;;16.70;99.90;;;;;;4355020;28;659919;-69
2023/06/09 03:53:32;;;;;;;21.90;14.53;;;16.70;99.90;;;;;;4379866;27;660194;-68
2023/06/09 03:56:20;;;;;;;19.33;14.17;;;16.80;99.90;;;;;;4387272;27;659423;-69
2023/06/09 03:59:09;;;;;;;23.50;14.60;;;16.80;99.90;;;;;;4380925;28;660229;-68
2023/06/09 04:01:56;;;;;;;25.20;15.60;;;16.80;99.90;;;;;;4354849;28;659639;-68
2023/06/09 04:04:44;;;;;;;22.87;14.77;;;16.80;99.90;;;;;;4380111;27;660096;-68
2023/06/09 04:07:32;;;;;;;25.93;15.00;;;16.80;99.90;;;;;;4359082;27;661416;-68
2023/06/09 04:10:19;;;;;;;23.23;15.33;;;16.90;99.90;;;;;;4421804;27;659714;-68
2023/06/09 04:13:06;;;;;;;24.63;15.80;;;16.90;99.90;;;;;;4366426;27;659900;-68
2023/06/09 04:15:55;;;;;;;27.43;15.57;;;16.90;99.90;;;;;;4393014;27;659713;-68
2023/06/09 04:18:42;;;;;;;27.13;16.70;;;16.90;99.90;;;;;;4369498;27;659952;-69
2023/06/09 04:21:29;;;;;;;27.87;16.40;;;17.00;99.90;;;;;;4385636;28;659530;-69
2023/06/09 04:24:17;;;;;;;24.50;16.03;;;17.00;99.90;;;;;;4377358;27;660847;-69
2023/06/09 04:27:05;;;;;;;24.60;16.40;;;17.00;99.90;;;;;;4403326;27;659644;-68
2023/06/09 04:29:52;;;;;;;22.70;15.93;;;17.10;99.90;;;;;;4350655;28;661655;-69
2023/06/09 04:32:40;;;;;;;25.17;16.13;;;17.10;99.90;;;;;;4377842;28;660442;-69
2023/06/09 04:35:28;;;;;;;24.93;15.13;;;17.20;99.90;;;;;;4353149;28;661262;-69
2023/06/09 04:38:16;;;;;;;25.37;16.20;;;17.20;99.90;;;;;;4405177;27;659899;-68
2023/06/09 04:41:04;;;;;;;25.77;16.90;;;17.20;99.90;;;;;;4415713;27;660596;-68
2023/06/09 04:43:53;;;;;;;26.77;16.77;;;17.30;99.90;;;;;;4355883;28;660599;-69
2023/06/09 04:46:41;;;;;;;26.90;16.57;;;17.30;99.90;;;;;;4359876;28;659581;-69
2023/06/09 04:49:31;;;;;;;26.40;16.30;;;17.40;99.90;;;;;;4396769;27;660634;-69
2023/06/09 04:52:20;;;;;;;24.87;16.30;;;17.40;99.90;;;;;;4355378;28;660551;-69
2023/06/09 04:55:08;;;;;;;28.67;16.17;;;17.50;99.90;;;;;;4357418;28;660789;-69
2023/06/09 04:57:56;;;;;;;25.87;16.90;;;17.60;99.90;;;;;;4358847;28;660857;-68
2023/06/09 05:00:43;;;;;;;24.20;16.53;;;17.70;99.90;;;;;;4378371;28;660362;-68
2023/06/09 05:03:31;;;;;;;26.73;16.43;;;17.80;99.90;;;;;;4389724;27;659918;-69
2023/06/09 05:06:19;;;;;;;26.30;16.80;;;17.90;99.90;;;;;;4383441;28;660285;-68
2023/06/09 05:09:07;;;;;;;26.63;16.43;;;18.00;99.90;;;;;;4403225;27;659822;-68
2023/06/09 05:11:54;;;;;;;26.58;16.58;;;18.00;99.90;;;;;;4395385;27;660807;-68
2023/06/09 05:14:43;;;;;;;25.70;16.93;;;18.20;99.90;;;;;;4370533;27;659705;-68
2023/06/09 05:17:31;;;;;;;25.33;16.50;;;18.30;99.90;;;;;;4371721;28;659574;-69
2023/06/09 05:20:18;;;;;;;25.40;16.50;;;18.40;99.90;;;;;;4384105;28;659924;-68
2023/06/09 05:23:08;;;;;;;26.90;15.30;;;18.40;99.90;;;;;;4363153;28;659583;-69
2023/06/09 05:25:56;;;;;;;24.87;15.93;;;18.50;99.90;;;;;;4357746;27;659696;-69
2023/06/09 05:28:43;;;;;;;24.03;15.93;;;18.70;99.90;;;;;;4380459;27;659980;-68
2023/06/09 05:31:31;;;;;;;25.90;15.33;;;18.80;99.90;;;;;;4360392;28;659717;-69
2023/06/09 05:34:19;;;;;;;21.87;15.37;;;18.90;99.90;;;;;;4397102;27;660284;-68
2023/06/09 05:37:06;;;;;;;23.80;15.37;;;19.00;99.90;;;;;;4361077;27;659961;-69
2023/06/09 05:39:55;;;;;;;22.93;14.77;;;19.10;99.90;;;;;;4400096;27;659882;-68
2023/06/09 05:42:42;;;;;;;22.73;14.60;;;19.30;99.90;;;;;;4382776;27;660831;-68
2023/06/09 05:45:29;;;;;;;17.73;13.13;;;19.50;99.90;;;;;;4386869;28;659875;-68
2023/06/09 05:48:16;;;;;;;20.97;13.50;;;19.60;99.90;;;;;;4380915;27;660145;-68
2023/06/09 05:51:03;;;;;;;18.30;13.03;;;19.90;99.90;;;;;;4396735;27;659633;-69
2023/06/09 05:53:53;;;;;;;17.13;12.83;;;20.00;99.90;;;;;;4354574;28;660043;-68
2023/06/09 05:56:44;;;;;;;20.07;14.13;;;20.00;99.90;;;;;;4379763;27;659942;-69
2023/06/09 05:59:32;;;;;;;17.47;13.03;;;20.20;99.90;;;;;;4399275;27;661262;-69
2023/06/09 06:02:20;;;;;;;18.47;12.47;;;20.40;99.90;;;;;;4374493;28;659881;-68
2023/06/09 06:05:08;;;;;;;18.47;12.33;;;20.40;99.90;;;;;;4374583;28;661314;-68
2023/06/09 06:07:56;;;;;;;15.93;11.87;;;20.50;99.90;;;;;;4357636;28;660186;-69
2023/06/09 06:10:43;;;;;;;19.07;11.47;;;20.70;99.90;;;;;;4408615;27;660036;-69
2023/06/09 06:13:32;;;;;;;16.97;11.50;;;20.90;99.90;;;;;;4361771;27;659813;-69
2023/06/09 06:16:19;;;;;;;14.50;10.70;;;21.00;99.90;;;;;;4404040;27;660737;-67
2023/06/09 06:19:08;;;;;;;19.30;10.97;;;20.80;99.90;;;;;;4362515;27;660472;-70
2023/06/09 06:21:56;;;;;;;13.83;10.47;;;21.00;99.90;;;;;;4272511;27;659610;-68
2023/06/09 06:24:43;;;;;;;13.67;10.37;;;21.30;99.90;;;;;;4202123;28;659358;-72
2023/06/09 06:27:30;;;;;;;14.97;11.00;;;21.30;99.90;;;;;;4294238;27;659319;-74
2023/06/09 06:30:19;;;;;;;13.00;10.00;;;21.40;99.90;;;;;;4386649;27;660627;-74
2023/06/09 06:33:06;;;;;;;17.67;10.20;;;21.40;99.90;;;;;;4357022;28;660129;-75
2023/06/09 06:35:53;;;;;;;15.40;11.53;;;21.30;99.90;;;;;;4374253;28;661391;-73
2023/06/09 06:38:41;;;;;;;13.23;10.20;;;21.20;99.90;;;;;;4357258;28;660738;-74
2023/06/09 06:41:28;;;;;;;14.80;10.17;;;21.20;99.90;;;;;;4396879;27;660228;-75
2023/06/09 06:44:15;;;;;;;17.10;11.00;;;21.30;99.90;;;;;;4382395;27;659591;-75
2023/06/09 06:47:04;;;;;;;16.53;10.93;;;21.20;99.90;;;;;;4380663;28;660787;-74
2023/06/09 06:49:51;;;;;;;16.63;11.80;;;21.40;99.90;;;;;;4351287;28;660295;-70
2023/06/09 06:52:39;;;;;;;20.40;12.17;;;21.40;99.90;;;;;;4370001;28;660028;-73
2023/06/09 06:55:26;;;;;;;16.77;12.13;;;21.50;99.90;;;;;;4366447;28;659534;-73
2023/06/09 06:58:14;;;;;;;21.73;12.43;;;21.50;99.90;;;;;;4381276;27;660590;-73
2023/06/09 07:01:02;;;;;;;16.73;12.00;;;21.50;99.90;;;;;;4364964;27;659579;-74
2023/06/09 07:03:52;;;;;;;18.30;12.80;;;21.30;99.90;;;;;;4366756;28;659905;-74
2023/06/09 07:06:39;;;;;;;20.70;12.63;;;21.20;99.90;;;;;;4377816;28;659419;-74
2023/06/09 07:09:27;;;;;;;18.10;12.47;;;21.10;99.90;;;;;;4350767;28;660382;-74
2023/06/09 07:12:14;;;;;;;19.43;13.43;;;21.10;99.90;;;;;;4396637;27;659522;-74
2023/06/09 07:15:02;;;;;;;20.47;13.33;;;21.10;99.90;;;;;;4363120;28;660263;-74
2023/06/09 07:17:49;;;;;;;19.47;12.80;;;21.20;99.90;;;;;;4388698;27;659998;-74
2023/06/09 07:20:38;;;;;;;18.87;13.33;;;21.40;99.90;;;;;;4417220;27;661399;-74
2023/06/09 07:23:25;;;;;;;18.30;13.53;;;21.70;99.90;;;;;;4370840;28;659398;-73
2023/06/09 07:26:13;;;;;;;22.07;13.27;;;21.80;99.90;;;;;;4378621;28;660740;-74
2023/06/09 07:29:00;;;;;;;20.63;13.00;;;22.10;99.90;;;;;;4370566;28;659957;-74
2023/06/09 07:31:47;;;;;;;24.43;13.37;;;22.30;99.90;;;;;;4395715;27;659791;-74
2023/06/09 07:34:35;;;;;;;22.97;13.10;;;22.40;99.90;;;;;;4400646;27;659488;-74
2023/06/09 07:37:25;;;;;;;19.77;12.40;;;22.50;99.90;;;;;;4381485;27;661151;-74
2023/06/09 07:40:12;;;;;;;17.50;13.53;;;22.50;99.90;;;;;;4370130;27;660488;-74
2023/06/09 07:42:59;;;;;;;23.10;13.23;;;22.90;99.90;;;;;;4385461;28;660337;-75
2023/06/09 07:45:47;;;;;;;17.70;13.07;;;23.10;99.90;;;;;;4358312;28;659823;-74
2023/06/09 07:48:36;;;;;;;19.67;14.17;;;23.10;99.90;;;;;;4375465;28;660494;-74
2023/06/09 07:51:26;;;;;;;21.17;13.40;;;22.70;99.90;;;;;;4349677;28;660322;-75
2023/06/09 07:54:15;;;;;;;20.97;14.53;;;22.70;99.90;;;;;;4369190;28;659954;-74
2023/06/09 07:57:02;;;;;;;26.73;14.60;;;22.40;99.90;;;;;;4351450;28;660768;-74
2023/06/09 07:59:49;;;;;;;22.40;15.27;;;22.50;99.90;;;;;;4395827;27;660213;-74
2023/06/09 08:02:40;;;;;;;20.53;15.50;;;22.20;99.90;;;;;;4351151;28;661103;-74
2023/06/09 08:05:27;;;;;;;22.60;15.27;;;22.40;99.90;;;;;;4353338;28;660670;-75
2023/06/09 08:08:15;;;;;;;24.00;16.37;;;22.50;99.90;;;;;;4392616;28;660784;-73
2023/06/09 08:11:04;;;;;;;25.80;16.90;;;22.80;99.90;;;;;;4366499;28;660226;-73
2023/06/09 08:13:51;;;;;;;26.47;17.47;;;23.00;99.90;;;;;;4369306;28;660161;-73
2023/06/09 08:16:38;;;;;;;23.80;15.83;;;23.10;99.90;;;;;;4380555;28;660262;-74
2023/06/09 08:19:25;;;;;;;19.73;15.77;;;23.40;99.90;;;;;;4370687;27;660596;-73
2023/06/09 08:22:13;;;;;;;22.13;14.93;;;23.70;99.90;;;;;;4383612;28;661025;-73
2023/06/09 08:25:00;;;;;;;22.33;15.00;;;24.00;99.90;;;;;;4360510;28;660050;-74
2023/06/09 08:27:49;;;;;;;21.25;13.88;;;24.00;99.90;;;;;;4377719;28;661260;-73
2023/06/09 08:30:36;;;;;;;16.25;13.57;;;24.20;99.90;;;;;;4356816;28;659578;-73
2023/06/09 08:33:23;;;;;;;18.50;14.35;;;24.20;99.90;;;;;;4395193;27;660022;-73
2023/06/09 08:36:12;;;;;;;21.40;12.50;;;24.30;99.90;;;;;;4354045;27;659653;-74
2023/06/09 08:38:59;;;;;;;16.27;12.57;;;24.20;99.90;;;;;;4378099;28;659871;-73
2023/06/09 08:41:47;;;;;;;16.40;12.52;;;24.60;99.90;;;;;;4361068;28;659808;-73
2023/06/09 08:44:37;;;;;;;16.38;13.23;;;24.90;99.90;;;;;;4379302;28;659682;-73
2023/06/09 08:47:25;;;;;;;16.38;11.40;;;25.00;99.90;;;;;;4356135;28;660189;-75
2023/06/09 08:50:12;;;;;;;15.77;10.95;;;25.40;99.90;;;;;;4373643;28;660317;-73
2023/06/09 08:53:00;;;;;;;12.63;11.20;;;25.40;99.90;;;;;;4372073;28;659828;-72
2023/06/09 08:55:47;;;;;;;16.15;11.52;;;25.20;99.90;;;;;;4385225;28;660161;-73
2023/06/09 08:58:35;;;;;;;16.70;12.38;;;24.70;99.90;;;;;;4379354;28;660416;-73
2023/06/09 09:01:24;;;;;;;16.40;11.93;;;24.40;99.90;;;;;;4376582;28;660593;-74
2023/06/09 09:04:11;;;;;;;16.52;11.38;;;24.30;99.90;;;;;;4351640;28;660232;-74
2023/06/09 09:06:59;;;;;;;13.13;10.52;;;24.30;99.90;;;;;;4395541;28;660455;-73
2023/06/09 09:09:46;;;;;;;15.43;11.40;;;24.30;99.90;;;;;;4353777;28;659301;-73
2023/06/09 09:12:46;;;;;;;15.63;10.60;;;24.30;99.90;;;;;;4390484;28;660675;-73
2023/06/09 09:15:33;;;;;;;15.07;11.02;;;24.30;99.90;;;;;;4374835;28;661367;-73
2023/06/09 09:18:22;;;;;;;14.65;10.05;;;24.70;99.90;;;;;;4358937;28;659946;-74
2023/06/09 09:21:09;;;;;;;18.60;10.80;;;25.20;99.90;;;;;;4380663;28;659378;-73
2023/06/09 09:23:57;;;;;;;18.30;8.80;;;25.40;99.90;;;;;;4350883;28;659994;-73
2023/06/09 09:26:44;;;;;;;10.20;8.40;;;25.60;99.90;;;;;;4391526;28;658733;-74
2023/06/09 09:29:33;;;;;;;9.18;7.80;;;25.80;99.90;;;;;;4356654;28;659183;-73
2023/06/09 09:32:25;;;;;;;11.00;8.90;;;26.30;99.90;;;;;;4363835;28;657625;-74
2023/06/09 09:35:14;;;;;;;8.70;7.63;;;26.80;99.90;;;;;;4376577;27;660030;-73
2023/06/09 09:38:01;;;;;;;9.55;7.97;;;26.80;99.90;;;;;;4364320;28;657589;-73
2023/06/09 09:40:50;;;;;;;10.48;8.10;;;26.70;99.90;;;;;;4378515;28;658382;-73
2023/06/09 09:43:37;;;;;;;10.98;7.57;;;26.60;99.90;;;;;;4357282;28;659446;-72
2023/06/09 09:46:25;;;;;;;13.90;7.32;;;26.80;99.90;;;;;;4385134;27;658968;-74
2023/06/09 09:49:22;;;;;;;11.55;8.20;;;26.90;99.90;;;;;;4388573;27;659266;-74
2023/06/09 09:52:12;;;;;;;10.25;8.13;;;26.60;99.90;;;;;;4358982;27;659443;-72
2023/06/09 09:55:00;;;;;;;10.90;7.30;;;26.50;99.90;;;;;;4357350;28;658988;-73
2023/06/09 09:57:47;;;;;;;12.43;7.53;;;26.80;99.90;;;;;;4354946;27;659779;-74
2023/06/09 10:00:36;;;;;;;20.83;7.53;;;27.20;99.90;;;;;;4367294;28;659288;-74
2023/06/09 10:03:23;;;;;;;14.30;6.53;;;27.50;99.90;;;;;;4380264;27;659173;-74
2023/06/09 10:06:12;;;;;;;8.85;6.20;;;27.90;99.90;;;;;;4389326;27;658955;-74
2023/06/09 10:09:02;;;;;;;10.82;6.07;;;28.00;99.90;;;;;;4394945;27;658810;-74
2023/06/09 10:11:51;;;;;;;7.47;5.53;;;28.10;99.70;;;;;;4334711;28;658760;-74
2023/06/09 10:14:38;;;;;;;9.95;5.80;;;27.90;95.80;;;;;;4377820;28;658733;-74
2023/06/09 10:17:25;;;;;;;8.63;5.75;;;27.60;97.60;;;;;;4363387;27;658504;-74
2023/06/09 10:20:13;;;;;;;13.15;5.82;;;27.60;97.30;;;;;;4395616;27;660100;-74
2023/06/09 10:23:00;;;;;;;8.88;5.43;;;27.60;96.70;;;;;;4395638;27;658532;-74
2023/06/09 10:25:49;;;;;;;6.18;5.25;;;27.60;96.90;;;;;;4393991;28;659279;-75
2023/06/09 10:28:37;;;;;;;10.10;5.63;;;27.30;95.60;;;;;;4374132;28;657626;-74
2023/06/09 10:31:24;;;;;;;9.05;5.60;;;26.90;99.90;;;;;;4395237;27;658829;-74
2023/06/09 10:34:12;;;;;;;8.75;5.65;;;27.30;99.90;;;;;;4356663;28;658194;-74
2023/06/09 10:36:59;;;;;;;9.95;5.80;;;27.50;97.80;;;;;;4399898;27;658243;-74
2023/06/09 10:39:50;;;;;;;7.60;5.15;;;26.90;98.20;;;;;;4355238;28;657328;-76
2023/06/09 10:42:42;;;;;;;8.88;5.47;;;27.00;99.90;;;;;;4361234;28;658146;-76
2023/06/09 10:45:48;;;;;;;10.88;6.18;;;26.70;98.70;;;;;;4392917;27;657422;-75
2023/06/09 10:48:45;;;;;;;7.13;5.35;;;26.40;99.90;;;;;;4351746;27;659134;-75
2023/06/09 10:51:39;;;;;;;8.20;5.30;;;26.80;99.90;;;;;;4353855;28;657623;-74
2023/06/09 10:54:27;;;;;;;8.85;5.30;;;26.80;99.90;;;;;;4346162;28;658100;-74
2023/06/09 10:57:36;;;;;;;8.55;5.30;;;26.60;99.90;;;;;;4377867;28;657413;-74
2023/06/09 11:00:25;;;;;;;8.35;6.03;;;26.50;99.90;;;;;;4359438;28;658103;-74
2023/06/09 11:03:31;;;;;;;6.13;5.40;;;26.40;99.90;;;;;;4365079;28;658296;-75
2023/06/09 11:06:18;;;;;;;9.45;5.93;;;26.30;99.90;;;;;;4349535;27;658182;-75
2023/06/09 11:09:09;;;;;;;10.32;5.85;;;26.30;99.90;;;;;;4362118;28;657868;-74
2023/06/09 11:11:57;;;;;;;6.70;5.72;;;26.40;99.90;;;;;;4366343;28;659371;-74
2023/06/09 11:14:56;;;;;;;7.05;5.93;;;26.30;99.90;;;;;;4386596;28;657875;-75
2023/06/09 11:17:45;;;;;;;6.32;5.43;;;26.10;99.90;;;;;;4378834;27;658369;-74
2023/06/09 11:20:33;;;;;;;8.63;6.07;;;25.80;99.90;;;;;;4353109;28;658004;-75
2023/06/09 11:23:21;;;;;;;9.82;6.20;;;25.80;99.90;;;;;;4372159;27;657202;-74
2023/06/09 11:26:21;;;;;;;6.57;5.82;;;25.90;99.90;;;;;;4372244;28;658270;-75
2023/06/09 11:29:21;;;;;;;8.27;6.07;;;25.80;99.90;;;;;;4366108;27;657724;-74
2023/06/09 11:32:09;;;;;;;6.65;5.95;;;25.60;99.90;;;;;;4352897;28;657912;-73
2023/06/09 11:34:58;;;;;;;7.47;6.70;;;25.70;99.90;;;;;;4365998;28;658129;-74
2023/06/09 11:37:45;;;;;;;7.32;6.55;;;25.80;99.90;;;;;;4361271;28;658472;-73
2023/06/09 11:40:33;;;;;;;9.55;6.65;;;25.80;99.90;;;;;;4396579;28;658621;-74
2023/06/09 11:43:22;;;;;;;8.85;7.63;;;25.70;99.90;;;;;;4360112;28;659242;-73
2023/06/09 11:46:09;;;;;;;9.10;7.38;;;25.90;99.90;;;;;;4387976;28;657332;-73
2023/06/09 11:49:07;;;;;;;9.82;6.88;;;26.10;99.90;;;;;;4357046;28;658469;-73
2023/06/09 11:52:06;;;;;;;10.65;6.57;;;26.20;99.90;;;;;;4359343;28;657616;-74
2023/06/09 11:54:53;;;;;;;8.55;6.28;;;26.30;99.90;;;;;;4354863;28;659331;-72
2023/06/09 11:57:41;;;;;;;7.85;6.78;;;26.30;99.90;;;;;;4355623;28;657832;-73
2023/06/09 12:00:29;;;;;;;10.00;7.00;;;25.70;99.90;;;;;;4392437;28;658736;-74
2023/06/09 12:03:18;;;;;;;11.68;6.70;;;25.70;99.90;;;;;;4355564;28;658567;-75
2023/06/09 12:06:06;;;;;;;9.77;6.63;;;25.60;99.90;;;;;;4358090;28;658766;-73
2023/06/09 12:09:09;;;;;;;9.98;6.72;;;25.60;99.90;;;;;;4380537;28;657607;-73
2023/06/09 12:11:57;;;;;;;11.25;6.68;;;25.70;99.90;;;;;;4333599;28;657971;-73
2023/06/09 12:14:44;;;;;;;9.30;6.82;;;25.70;99.90;;;;;;4381208;28;658448;-74
2023/06/09 12:17:31;;;;;;;10.52;7.38;;;25.90;99.90;;;;;;4358693;28;657880;-74
2023/06/09 12:20:24;;;;;;;11.77;6.40;;;26.20;99.90;;;;;;4347011;27;659860;-73
2023/06/09 12:23:14;;;;;;;7.05;6.07;;;26.30;99.90;;;;;;4194242;27;659280;-73
2023/06/09 12:26:06;;;;;;;11.95;5.65;;;26.30;99.90;;;;;;4248495;28;657872;-73
2023/06/09 12:28:54;;;;;;;6.82;5.65;;;26.20;99.90;;;;;;4355546;28;660128;-73
2023/06/09 12:31:47;;;;;;;10.20;6.60;;;26.00;99.90;;;;;;4358257;28;657757;-72
2023/06/09 12:34:34;;;;;;;16.98;6.15;;;25.70;99.90;;;;;;4362452;27;658560;-72
2023/06/09 12:37:22;;;;;;;18.13;10.25;;;25.10;99.90;;;;;;4353770;28;658557;-74
2023/06/09 12:40:10;;;;;;;28.63;16.45;;;24.70;99.90;;;;;;4377094;27;660488;-73
2023/06/09 12:42:59;;;;;;;88.35;47.55;;;24.50;99.90;;;;;;4362191;28;660540;-74
2023/06/09 12:45:46;;;;;;;23.30;15.95;;;24.60;99.90;;;;;;4371100;27;660419;-74
2023/06/09 12:48:34;;;;;;;31.25;18.55;;;24.60;99.90;;;;;;4393207;27;659421;-74
2023/06/09 12:51:21;;;;;;;21.23;12.35;;;24.60;99.90;;;;;;4351436;27;660686;-74
2023/06/09 12:54:08;;;;;;;13.13;9.13;;;24.60;99.90;;;;;;4392972;28;660650;-74
2023/06/09 12:56:56;;;;;;;13.00;8.35;;;24.50;99.90;;;;;;4371008;28;659256;-74
2023/06/09 12:59:44;;;;;;;36.85;18.05;;;24.60;99.90;;;;;;4388137;28;658995;-74
2023/06/09 13:02:33;;;;;;;20.48;11.73;;;24.70;99.90;;;;;;4352284;27;659791;-74
2023/06/09 13:05:21;;;;;;;29.33;13.55;;;25.00;99.90;;;;;;4361662;28;661307;-74
2023/06/09 13:08:08;;;;;;;13.07;7.70;;;25.20;99.90;;;;;;4376726;28;659245;-75
2023/06/09 13:10:55;;;;;;;19.27;10.43;;;25.40;99.90;;;;;;4360020;28;658570;-74
2023/06/09 13:13:43;;;;;;;11.15;7.60;;;25.40;99.90;;;;;;4392119;28;660718;-73
2023/06/09 13:16:32;;;;;;;10.45;7.30;;;25.50;99.90;;;;;;4377783;28;659398;-74
2023/06/09 13:19:19;;;;;;;10.77;7.38;;;25.60;99.90;;;;;;4396235;27;660115;-74
2023/06/09 13:22:06;;;;;;;10.77;6.97;;;25.50;99.90;;;;;;4377748;27;658767;-73
2023/06/09 13:24:53;;;;;;;8.63;7.43;;;25.50;99.90;;;;;;4397229;27;659475;-74
2023/06/09 13:27:41;;;;;;;8.52;7.63;;;25.60;99.90;;;;;;4376780;27;658075;-74
2023/06/09 13:30:28;;;;;;;9.13;7.03;;;25.60;99.90;;;;;;4389640;27;658603;-74
2023/06/09 13:33:17;;;;;;;9.65;7.30;;;26.10;99.90;;;;;;4365976;27;657712;-74
2023/06/09 13:36:05;;;;;;;10.35;7.50;;;26.50;99.90;;;;;;4375878;28;657673;-74
2023/06/09 13:38:52;;;;;;;9.77;8.00;;;26.90;99.90;;;;;;4360755;28;659022;-74
2023/06/09 13:41:39;;;;;;;12.27;8.05;;;27.10;99.90;;;;;;4384417;28;657198;-74
2023/06/09 13:44:27;;;;;;;11.35;8.77;;;27.40;99.90;;;;;;4380105;28;658977;-74
2023/06/09 13:47:14;;;;;;;12.48;9.82;;;27.60;99.90;;;;;;4377989;28;658855;-74
2023/06/09 13:50:02;;;;;;;14.82;10.52;;;27.50;99.90;;;;;;4350734;28;658396;-74
2023/06/09 13:52:50;;;;;;;15.43;11.32;;;27.60;99.90;;;;;;4387316;28;660032;-74
2023/06/09 13:55:37;;;;;;;12.77;10.43;;;27.50;99.90;;;;;;4374867;28;660767;-74
2023/06/09 13:58:26;;;;;;;13.55;10.32;;;26.70;99.90;;;;;;4376127;28;660076;-73
2023/06/09 14:01:13;;;;;;;19.92;11.45;;;26.00;99.90;;;;;;4381097;28;660549;-74
2023/06/09 14:04:00;;;;;;;14.98;9.93;;;25.60;99.90;;;;;;4369823;28;659843;-74
2023/06/09 14:06:49;;;;;;;19.52;12.75;;;24.80;99.90;;;;;;4377028;28;659196;-73
2023/06/09 14:09:36;;;;;;;14.18;11.40;;;24.70;99.90;;;;;;4372424;28;659708;-73